createdAt,value
2022-10-12T00:01:32.537Z,58.00
2022-10-12T00:03:05.947Z,57.90
2022-10-12T00:04:39.206Z,58.00
2022-10-12T00:06:15.287Z,58.00
2022-10-12T00:07:48.640Z,58.10
2022-10-12T00:09:21.807Z,58.10
2022-10-12T00:10:55.095Z,58.10
2022-10-12T00:12:29.666Z,58.10
2022-10-12T00:14:03.287Z,58.10
2022-10-12T00:15:39.873Z,58.10
2022-10-12T00:17:13.223Z,58.20
2022-10-12T00:18:50.420Z,58.20
2022-10-12T00:20:23.866Z,58.30
2022-10-12T00:21:57.200Z,58.30
2022-10-12T00:23:30.671Z,58.30
2022-10-12T00:25:04.325Z,58.40
2022-10-12T00:26:37.655Z,58.30
2022-10-12T00:28:13.124Z,58.30
2022-10-12T00:29:46.323Z,58.40
2022-10-12T00:31:21.892Z,58.40
2022-10-12T00:32:55.092Z,58.50
2022-10-12T00:34:27.437Z,58.50
2022-10-12T00:36:00.614Z,58.50
2022-10-12T00:37:34.651Z,58.60
2022-10-12T00:39:10.275Z,58.60
2022-10-12T00:40:43.916Z,58.60
2022-10-12T00:42:20.788Z,58.60
2022-10-12T00:43:58.518Z,58.60
2022-10-12T00:45:33.243Z,58.50
2022-10-12T00:47:16.779Z,58.40
2022-10-12T00:48:58.141Z,58.50
2022-10-12T00:50:36.260Z,58.50
2022-10-12T00:52:13.139Z,58.40
2022-10-12T00:53:53.718Z,58.40
2022-10-12T00:55:32.376Z,58.50
2022-10-12T00:57:06.415Z,58.50
2022-10-12T00:58:39.977Z,58.60
2022-10-12T01:00:20.236Z,58.70
2022-10-12T01:01:58.650Z,58.80
2022-10-12T01:03:38.059Z,58.70
2022-10-12T01:05:16.722Z,58.60
2022-10-12T01:06:56.400Z,58.60
2022-10-12T01:08:35.863Z,58.70
2022-10-12T01:10:17.767Z,58.80
2022-10-12T01:11:56.520Z,58.60
2022-10-12T01:13:36.603Z,58.60
2022-10-12T01:15:19.038Z,58.50
2022-10-12T01:17:05.235Z,58.50
2022-10-12T01:18:51.927Z,58.50
2022-10-12T01:21:04.319Z,58.50
2022-10-12T01:22:50.439Z,58.60
2022-10-12T01:24:49.710Z,58.50
2022-10-12T01:27:04.254Z,58.70
2022-10-12T01:28:51.688Z,58.70
2022-10-12T01:30:33.085Z,58.60
2022-10-12T01:32:16.922Z,58.50
2022-10-12T01:33:59.219Z,58.50
2022-10-12T01:35:41.935Z,58.40
2022-10-12T01:37:25.880Z,58.40
2022-10-12T01:39:08.462Z,58.60
2022-10-12T01:40:48.350Z,58.50
2022-10-12T01:42:29.110Z,58.60
2022-10-12T01:44:02.494Z,58.60
2022-10-12T01:45:37.365Z,58.60
2022-10-12T01:47:10.828Z,58.80
2022-10-12T01:48:46.568Z,58.90
2022-10-12T01:50:22.623Z,58.90
2022-10-12T01:52:28.394Z,58.90
2022-10-12T01:54:13.393Z,59.10
2022-10-12T01:55:56.208Z,58.90
2022-10-12T01:57:45.348Z,58.90
2022-10-12T01:59:32.852Z,58.90
2022-10-12T02:01:22.169Z,59.00
2022-10-12T02:03:11.574Z,59.00
2022-10-12T02:04:55.360Z,58.90
2022-10-12T02:06:39.502Z,58.90
2022-10-12T02:08:24.827Z,58.90
2022-10-12T02:10:02.739Z,58.90
2022-10-12T02:11:41.571Z,58.90
2022-10-12T02:13:19.674Z,58.90
2022-10-12T02:14:59.707Z,58.80
2022-10-12T02:16:41.523Z,58.90
2022-10-12T02:18:19.562Z,58.90
2022-10-12T02:19:58.859Z,59.10
2022-10-12T02:21:35.383Z,59.10
2022-10-12T02:23:11.401Z,59.10
2022-10-12T02:24:50.186Z,59.10
2022-10-12T02:26:24.258Z,59.20
2022-10-12T02:28:06.743Z,59.20
2022-10-12T02:29:44.076Z,59.30
2022-10-12T02:31:27.090Z,59.20
2022-10-12T02:33:09.217Z,59.20
2022-10-12T02:34:49.291Z,59.20
2022-10-12T02:36:33.750Z,59.10
2022-10-12T02:38:14.915Z,59.10
2022-10-12T02:39:54.279Z,59.10
2022-10-12T02:41:37.785Z,59.10
2022-10-12T02:43:17.722Z,59.10
2022-10-12T02:44:54.111Z,59.00
2022-10-12T02:46:32.407Z,59.00
2022-10-12T02:48:09.295Z,58.90
2022-10-12T02:49:45.707Z,58.80
2022-10-12T02:51:20.301Z,58.80
2022-10-12T02:52:54.500Z,58.80
2022-10-12T02:54:28.175Z,58.80
2022-10-12T02:56:05.647Z,58.80
2022-10-12T02:57:39.570Z,58.80
2022-10-12T02:59:13.656Z,58.80
2022-10-12T03:00:47.007Z,58.80
2022-10-12T03:02:20.323Z,58.90
2022-10-12T03:03:54.959Z,59.00
2022-10-12T03:05:28.448Z,59.00
2022-10-12T03:07:01.717Z,59.10
2022-10-12T03:08:34.967Z,59.00
2022-10-12T03:10:09.459Z,59.00
2022-10-12T03:11:43.816Z,59.00
2022-10-12T03:13:17.185Z,59.10
2022-10-12T03:14:50.804Z,59.20
2022-10-12T03:16:25.000Z,59.20
2022-10-12T03:17:58.833Z,59.20
2022-10-12T03:19:33.509Z,59.20
2022-10-12T03:21:07.650Z,59.20
2022-10-12T03:22:41.175Z,59.20
2022-10-12T03:24:14.858Z,59.20
2022-10-12T03:25:48.220Z,59.30
2022-10-12T03:27:21.510Z,59.30
2022-10-12T03:28:55.211Z,59.20
2022-10-12T03:30:28.722Z,59.30
2022-10-12T03:32:01.981Z,59.30
2022-10-12T03:33:35.848Z,59.30
2022-10-12T03:35:11.245Z,59.20
2022-10-12T03:36:47.684Z,59.20
2022-10-12T03:38:21.630Z,59.20
2022-10-12T03:39:55.210Z,59.20
2022-10-12T03:41:28.431Z,59.10
2022-10-12T03:43:01.950Z,59.10
2022-10-12T03:44:35.320Z,59.20
2022-10-12T03:46:08.763Z,59.30
2022-10-12T03:47:42.123Z,59.20
2022-10-12T03:49:15.438Z,59.20
2022-10-12T03:50:52.172Z,59.20
2022-10-12T03:52:25.796Z,59.30
2022-10-12T03:53:59.147Z,59.20
2022-10-12T03:55:32.906Z,59.20
2022-10-12T03:57:05.391Z,59.20
2022-10-12T03:58:38.706Z,59.30
2022-10-12T04:00:14.192Z,59.30
2022-10-12T04:01:46.725Z,59.30
2022-10-12T04:03:20.196Z,59.20
2022-10-12T04:04:53.944Z,59.30
2022-10-12T04:06:28.812Z,59.30
2022-10-12T04:08:02.665Z,59.40
2022-10-12T04:09:36.008Z,59.40
2022-10-12T04:11:08.389Z,59.40
2022-10-12T04:12:41.832Z,59.40
2022-10-12T04:14:15.286Z,59.40
2022-10-12T04:15:47.787Z,59.50
2022-10-12T04:17:21.115Z,59.50
2022-10-12T04:18:54.483Z,59.50
2022-10-12T04:20:28.136Z,59.60
2022-10-12T04:22:02.712Z,59.70
2022-10-12T04:23:36.200Z,59.80
2022-10-12T04:25:12.123Z,60.50
2022-10-12T04:26:45.747Z,59.80
2022-10-12T04:28:19.349Z,60.50
2022-10-12T04:29:53.216Z,59.80
2022-10-12T04:31:27.305Z,59.90
2022-10-12T04:33:00.704Z,59.80
2022-10-12T04:34:35.893Z,59.80
2022-10-12T04:36:10.791Z,59.70
2022-10-12T04:37:45.936Z,59.70
2022-10-12T04:39:19.583Z,59.70
2022-10-12T04:40:53.271Z,59.60
2022-10-12T04:42:25.569Z,60.20
2022-10-12T04:43:59.173Z,59.50
2022-10-12T04:45:32.596Z,59.50
2022-10-12T04:47:06.207Z,59.50
2022-10-12T04:48:39.527Z,59.50
2022-10-12T04:50:12.795Z,59.60
2022-10-12T04:51:46.056Z,59.50
2022-10-12T04:53:20.910Z,59.50
2022-10-12T04:54:54.153Z,59.50
2022-10-12T04:56:27.483Z,59.50
2022-10-12T04:58:01.628Z,59.40
2022-10-12T04:59:34.871Z,59.50
2022-10-12T05:01:08.201Z,59.40
2022-10-12T05:02:41.506Z,59.40
2022-10-12T05:04:14.731Z,59.50
2022-10-12T05:05:48.146Z,59.50
2022-10-12T05:07:21.659Z,59.60
2022-10-12T05:08:56.318Z,59.60
2022-10-12T05:10:33.656Z,59.70
2022-10-12T05:12:07.624Z,59.80
2022-10-12T05:13:40.865Z,59.80
2022-10-12T05:15:14.588Z,60.00
2022-10-12T05:16:47.867Z,60.10
2022-10-12T05:18:21.265Z,60.20
2022-10-12T05:19:54.552Z,60.20
2022-10-12T05:21:27.871Z,60.30
2022-10-12T05:23:01.384Z,60.30
2022-10-12T05:24:35.315Z,60.40
2022-10-12T05:26:08.770Z,60.50
2022-10-12T05:27:42.922Z,60.60
2022-10-12T05:29:16.339Z,60.70
2022-10-12T05:30:51.706Z,60.70
2022-10-12T05:32:25.610Z,60.80
2022-10-12T05:33:58.896Z,60.80
2022-10-12T05:35:32.324Z,60.80
2022-10-12T05:37:06.075Z,60.90
2022-10-12T05:38:39.458Z,60.90
2022-10-12T05:40:14.415Z,60.90
2022-10-12T05:41:47.683Z,61.10
2022-10-12T05:43:21.151Z,61.20
2022-10-12T05:44:54.515Z,61.30
2022-10-12T05:46:27.836Z,61.40
2022-10-12T05:48:01.148Z,61.50
2022-10-12T05:49:35.020Z,61.50
2022-10-12T05:51:08.287Z,61.60
2022-10-12T05:52:41.650Z,61.60
2022-10-12T05:54:15.042Z,61.70
2022-10-12T05:55:55.626Z,61.60
2022-10-12T05:57:29.007Z,61.70
2022-10-12T05:59:03.619Z,61.60
2022-10-12T06:00:36.898Z,61.50
2022-10-12T06:02:14.769Z,61.50
2022-10-12T06:03:48.096Z,61.50
2022-10-12T06:05:22.099Z,61.40
2022-10-12T06:06:54.476Z,61.60
2022-10-12T06:08:28.051Z,61.50
2022-10-12T06:10:01.615Z,61.50
2022-10-12T06:11:36.849Z,61.50
2022-10-12T06:13:10.112Z,61.40
2022-10-12T06:14:43.775Z,61.30
2022-10-12T06:16:17.194Z,61.30
2022-10-12T06:17:50.593Z,61.30
2022-10-12T06:19:23.919Z,61.30
2022-10-12T06:21:28.332Z,61.30
2022-10-12T06:22:50.585Z,61.20
2022-10-12T06:24:23.909Z,61.10
2022-10-12T06:25:57.495Z,61.20
2022-10-12T06:27:32.152Z,61.20
2022-10-12T06:29:05.827Z,61.40
2022-10-12T06:30:41.272Z,61.50
2022-10-12T06:32:15.117Z,61.60
2022-10-12T06:33:50.767Z,61.50
2022-10-12T06:35:24.655Z,61.40
2022-10-12T06:37:01.856Z,61.60
2022-10-12T06:38:35.542Z,61.50
2022-10-12T06:40:10.596Z,61.40
2022-10-12T06:41:44.124Z,61.50
2022-10-12T06:43:19.449Z,61.40
2022-10-12T06:44:52.757Z,62.10
2022-10-12T06:46:26.435Z,61.20
2022-10-12T06:47:59.787Z,61.30
2022-10-12T06:49:33.624Z,61.40
2022-10-12T06:51:07.397Z,61.30
2022-10-12T06:52:41.101Z,61.40
2022-10-12T06:54:14.699Z,61.40
2022-10-12T06:55:48.204Z,61.50
2022-10-12T06:57:21.729Z,61.60
2022-10-12T06:58:57.275Z,61.60
2022-10-12T07:00:30.591Z,61.70
2022-10-12T07:02:03.915Z,61.80
2022-10-12T07:03:38.349Z,61.90
2022-10-12T07:05:12.032Z,61.80
2022-10-12T07:06:45.483Z,61.70
2022-10-12T07:08:18.973Z,61.80
2022-10-12T07:09:53.342Z,61.60
2022-10-12T07:11:27.135Z,61.50
2022-10-12T07:13:00.635Z,61.50
2022-10-12T07:14:35.629Z,61.40
2022-10-12T07:16:09.393Z,61.40
2022-10-12T07:17:42.781Z,61.40
2022-10-12T07:19:16.041Z,61.50
2022-10-12T07:20:49.279Z,61.80
2022-10-12T07:22:22.553Z,61.90
2022-10-12T07:23:56.435Z,62.00
2022-10-12T07:25:29.915Z,62.00
2022-10-12T07:27:04.375Z,62.10
2022-10-12T07:28:38.704Z,62.00
2022-10-12T07:30:14.756Z,62.20
2022-10-12T07:31:51.866Z,62.30
2022-10-12T07:33:25.403Z,62.30
2022-10-12T07:34:58.955Z,62.30
2022-10-12T07:36:57.510Z,62.30
2022-10-12T07:38:25.841Z,62.30
2022-10-12T07:39:59.176Z,62.30
2022-10-12T07:41:32.508Z,62.40
2022-10-12T07:43:15.781Z,62.40
2022-10-12T07:44:49.755Z,62.50
2022-10-12T07:46:25.373Z,62.60
2022-10-12T07:47:59.051Z,62.60
2022-10-12T07:49:32.360Z,62.60
2022-10-12T07:51:07.130Z,62.50
2022-10-12T07:52:40.463Z,63.50
2022-10-12T07:54:19.884Z,62.60
2022-10-12T07:56:00.350Z,62.70
2022-10-12T07:57:33.676Z,62.80
2022-10-12T07:59:06.920Z,62.70
2022-10-12T08:00:41.142Z,62.90
2022-10-12T08:02:15.748Z,63.00
2022-10-12T08:03:49.330Z,63.00
2022-10-12T08:05:23.178Z,63.20
2022-10-12T08:06:57.885Z,63.20
2022-10-12T08:08:31.823Z,63.60
2022-10-12T08:10:06.079Z,63.80
2022-10-12T08:11:40.587Z,64.00
2022-10-12T08:13:13.947Z,63.90
2022-10-12T08:14:47.184Z,63.70
2022-10-12T08:16:22.968Z,63.70
2022-10-12T08:17:57.671Z,63.70
2022-10-12T08:19:35.220Z,63.80
2022-10-12T08:21:10.419Z,63.90
2022-10-12T08:22:43.824Z,64.10
2022-10-12T08:24:17.511Z,64.30
2022-10-12T08:25:54.457Z,64.50
2022-10-12T08:27:32.316Z,64.90
2022-10-12T08:29:08.098Z,65.10
2022-10-12T08:30:41.603Z,65.10
2022-10-12T08:32:14.895Z,65.50
2022-10-12T08:33:49.497Z,66.00
2022-10-12T08:35:22.992Z,66.10
2022-10-12T08:36:56.188Z,65.90
2022-10-12T08:38:29.704Z,66.00
2022-10-12T08:40:04.020Z,66.00
2022-10-12T08:41:52.991Z,66.00
2022-10-12T08:43:42.462Z,66.30
2022-10-12T08:45:36.626Z,66.90
2022-10-12T08:47:18.097Z,67.40
2022-10-12T08:49:01.686Z,67.80
2022-10-12T08:50:42.932Z,68.10
2022-10-12T08:52:29.723Z,68.10
2022-10-12T08:54:08.428Z,68.20
2022-10-12T08:55:44.792Z,68.10
2022-10-12T08:57:20.255Z,68.20
2022-10-12T08:58:55.291Z,68.30
2022-10-12T09:00:35.037Z,68.70
2022-10-12T09:02:35.127Z,68.90
2022-10-12T09:04:22.884Z,69.20
2022-10-12T09:06:06.908Z,68.30
2022-10-12T09:07:47.427Z,68.30
2022-10-12T09:09:43.161Z,68.50
2022-10-12T09:11:41.763Z,68.90
2022-10-12T09:13:36.459Z,69.20
2022-10-12T09:15:16.091Z,69.50
2022-10-12T09:16:52.271Z,69.60
2022-10-12T09:18:41.100Z,69.70
2022-10-12T09:20:22.452Z,70.10
2022-10-12T09:21:57.693Z,70.30
2022-10-12T09:23:36.065Z,70.30
2022-10-12T09:25:15.041Z,70.50
2022-10-12T09:26:54.548Z,70.60
2022-10-12T09:28:37.684Z,70.70
2022-10-12T09:30:16.089Z,70.70
2022-10-12T09:32:11.579Z,70.60
2022-10-12T09:33:52.477Z,70.40
2022-10-12T09:35:28.072Z,70.40
2022-10-12T09:37:04.854Z,70.60
2022-10-12T09:38:39.315Z,70.70
2022-10-12T09:40:22.985Z,70.70
2022-10-12T09:41:56.242Z,70.90
2022-10-12T09:43:29.636Z,70.80
2022-10-12T09:45:15.674Z,70.70
2022-10-12T09:46:58.392Z,70.70
2022-10-12T09:48:31.714Z,70.70
2022-10-12T09:50:08.101Z,70.70
2022-10-12T09:51:43.279Z,70.90
2022-10-12T09:53:27.189Z,71.00
2022-10-12T09:55:05.209Z,71.10
2022-10-12T09:56:44.350Z,71.10
2022-10-12T09:58:22.561Z,71.30
2022-10-12T09:59:56.803Z,71.50
2022-10-12T10:01:32.286Z,71.50
2022-10-12T10:03:05.850Z,71.60
2022-10-12T10:04:41.077Z,71.50
2022-10-12T10:06:15.299Z,70.40
2022-10-12T10:07:49.924Z,68.90
2022-10-12T10:09:32.882Z,69.50
2022-10-12T10:11:06.961Z,68.00
2022-10-12T10:12:49.457Z,67.20
2022-10-12T10:14:23.489Z,65.50
2022-10-12T10:16:07.263Z,64.80
2022-10-12T10:17:40.693Z,63.10
2022-10-12T10:19:19.883Z,63.30
2022-10-12T10:20:57.152Z,64.60
2022-10-12T10:22:31.731Z,64.90
2022-10-12T10:24:21.600Z,63.80
2022-10-12T10:25:58.870Z,63.90
2022-10-12T10:27:37.618Z,64.90
2022-10-12T10:29:31.639Z,63.70
2022-10-12T10:31:08.445Z,60.30
2022-10-12T10:32:42.101Z,60.20
2022-10-12T10:34:23.907Z,59.50
2022-10-12T10:36:04.318Z,57.80
2022-10-12T10:37:37.632Z,57.30
2022-10-12T10:39:26.214Z,56.90
2022-10-12T10:41:08.388Z,55.70
2022-10-12T10:42:41.759Z,55.80
2022-10-12T10:44:30.982Z,55.80
2022-10-12T10:46:05.871Z,54.10
2022-10-12T10:47:46.677Z,54.30
2022-10-12T10:49:34.401Z,53.30
2022-10-12T10:51:08.853Z,52.90
2022-10-12T10:52:58.171Z,53.30
2022-10-12T10:54:36.346Z,52.50
2022-10-12T10:56:15.204Z,52.50
2022-10-12T10:57:59.076Z,52.20
2022-10-12T10:59:52.423Z,51.80
2022-10-12T11:01:33.722Z,51.00
2022-10-12T11:03:15.447Z,51.20
2022-10-12T11:04:54.698Z,50.60
2022-10-12T11:06:39.831Z,50.70
2022-10-12T11:08:20.544Z,51.10
2022-10-12T11:09:59.556Z,51.00
2022-10-12T11:11:37.497Z,50.80
2022-10-12T11:13:20.586Z,50.50
2022-10-12T11:15:05.400Z,49.90
2022-10-12T11:16:46.355Z,49.90
2022-10-12T11:18:28.564Z,49.70
2022-10-12T11:20:26.615Z,49.50
2022-10-12T11:22:05.864Z,49.50
2022-10-12T11:23:49.398Z,49.70
2022-10-12T11:25:32.451Z,49.50
2022-10-12T11:27:16.090Z,49.70
2022-10-12T11:28:50.624Z,49.70
2022-10-12T11:30:28.099Z,49.90
2022-10-12T11:32:07.970Z,49.30
2022-10-12T11:33:44.440Z,49.30
2022-10-12T11:35:28.963Z,48.90
2022-10-12T11:37:19.283Z,48.90
2022-10-12T11:39:02.069Z,48.70
2022-10-12T11:41:05.621Z,48.40
2022-10-12T11:42:43.868Z,48.30
2022-10-12T11:44:29.259Z,48.20
2022-10-12T11:46:11.239Z,47.90
2022-10-12T11:47:51.920Z,47.90
2022-10-12T11:49:32.239Z,47.80
2022-10-12T11:51:07.763Z,47.90
2022-10-12T11:52:48.091Z,48.20
2022-10-12T11:54:33.254Z,47.80
2022-10-12T11:56:19.180Z,47.80
2022-10-12T11:57:55.628Z,47.70
2022-10-12T11:59:37.307Z,48.10
2022-10-12T12:01:51.393Z,47.90
2022-10-12T12:03:34.927Z,47.50
2022-10-12T12:05:16.726Z,47.40
2022-10-12T12:06:54.380Z,47.70
2022-10-12T12:09:19.364Z,47.80
2022-10-12T12:11:04.156Z,47.50
2022-10-12T12:13:11.340Z,47.70
2022-10-12T12:15:21.933Z,47.40
2022-10-12T12:17:21.514Z,47.60
2022-10-12T12:19:38.538Z,47.30
2022-10-12T12:21:12.031Z,47.40
2022-10-12T12:22:54.974Z,47.50
2022-10-12T12:24:28.427Z,47.30
2022-10-12T12:26:17.578Z,47.60
2022-10-12T12:27:56.614Z,47.30
2022-10-12T12:29:30.676Z,47.70
2022-10-12T12:31:14.299Z,47.80
2022-10-12T12:32:52.701Z,47.60
2022-10-12T12:34:27.731Z,47.90
2022-10-12T12:36:04.198Z,47.90
2022-10-12T12:37:37.028Z,47.80
2022-10-12T12:39:25.728Z,48.10
2022-10-12T12:41:10.102Z,47.60
2022-10-12T12:42:43.412Z,47.60
2022-10-12T12:44:41.655Z,47.80
2022-10-12T12:46:16.065Z,47.30
2022-10-12T12:47:49.652Z,47.30
2022-10-12T12:49:40.897Z,47.30
2022-10-12T12:51:19.636Z,47.20
2022-10-12T12:53:02.376Z,47.30
2022-10-12T12:54:42.572Z,47.30
2022-10-12T12:56:25.015Z,47.30
2022-10-12T12:58:25.016Z,47.90
2022-10-12T13:00:18.398Z,47.30
2022-10-12T13:02:21.959Z,47.30
2022-10-12T13:04:27.931Z,47.20
2022-10-12T13:06:59.610Z,47.20
2022-10-12T13:08:53.922Z,47.30
2022-10-12T13:10:39.348Z,47.40
2022-10-12T13:12:50.553Z,47.80
2022-10-12T13:14:52.387Z,47.90
2022-10-12T13:19:01.391Z,47.40
2022-10-12T13:20:39.772Z,47.40
2022-10-12T13:22:21.944Z,47.50
2022-10-12T13:24:06.125Z,47.40
2022-10-12T13:25:48.462Z,47.40
2022-10-12T13:27:26.918Z,47.40
2022-10-12T13:29:03.709Z,47.40
2022-10-12T13:30:46.848Z,47.40
2022-10-12T13:32:34.043Z,47.40
2022-10-12T13:34:17.179Z,47.40
2022-10-12T13:35:58.483Z,47.40
2022-10-12T13:37:35.172Z,47.50
2022-10-12T13:39:16.275Z,47.20
2022-10-12T13:41:02.395Z,47.30
2022-10-12T13:42:36.563Z,47.30
2022-10-12T13:44:23.093Z,47.30
2022-10-12T13:45:56.893Z,47.40
2022-10-12T13:47:34.339Z,47.70
2022-10-12T13:49:16.357Z,47.80
2022-10-12T13:50:55.280Z,47.90
2022-10-12T13:52:32.645Z,48.10
2022-10-12T13:54:21.575Z,48.10
2022-10-12T13:56:04.692Z,48.20
2022-10-12T13:57:43.391Z,48.10
2022-10-12T13:59:21.347Z,48.40
2022-10-12T14:00:54.755Z,48.40
2022-10-12T14:02:32.516Z,48.40
2022-10-12T14:04:09.203Z,48.10
2022-10-12T14:05:46.540Z,48.00
2022-10-12T14:07:24.696Z,48.10
2022-10-12T14:09:02.827Z,48.20
2022-10-12T14:10:38.874Z,48.30
2022-10-12T14:12:14.210Z,48.90
2022-10-12T14:13:48.632Z,48.30
2022-10-12T14:15:24.508Z,48.60
2022-10-12T14:16:58.070Z,48.70
2022-10-12T14:18:44.733Z,48.80
2022-10-12T14:20:29.663Z,48.80
2022-10-12T14:22:04.749Z,49.00
2022-10-12T14:23:45.535Z,49.70
2022-10-12T14:25:22.621Z,48.90
2022-10-12T14:27:00.122Z,48.90
2022-10-12T14:28:35.910Z,48.60
2022-10-12T14:30:21.062Z,48.80
2022-10-12T14:31:57.309Z,48.70
2022-10-12T14:33:32.866Z,48.90
2022-10-12T14:35:25.113Z,49.00
2022-10-12T14:37:01.646Z,48.90
2022-10-12T14:38:41.289Z,48.80
2022-10-12T14:40:40.065Z,48.70
2022-10-12T14:42:21.659Z,48.60
2022-10-12T14:44:10.598Z,48.60
2022-10-12T14:45:44.295Z,48.80
2022-10-12T14:47:22.265Z,49.80
2022-10-12T14:48:55.616Z,49.00
2022-10-12T14:50:32.762Z,49.10
2022-10-12T14:52:07.477Z,49.30
2022-10-12T14:53:41.079Z,49.20
2022-10-12T14:55:18.480Z,49.10
2022-10-12T14:56:52.020Z,49.50
2022-10-12T14:58:25.701Z,49.60
2022-10-12T15:00:00.187Z,49.60
2022-10-12T15:01:37.729Z,49.80
2022-10-12T15:03:13.018Z,49.60
2022-10-12T15:04:47.158Z,49.50
2022-10-12T15:06:21.928Z,49.40
2022-10-12T15:07:55.521Z,49.60
2022-10-12T15:09:28.880Z,49.40
2022-10-12T15:11:02.135Z,49.60
2022-10-12T15:12:36.364Z,49.80
2022-10-12T15:14:12.094Z,49.70
2022-10-12T15:15:48.539Z,49.60
2022-10-12T15:17:22.381Z,49.70
2022-10-12T15:18:55.750Z,49.40
2022-10-12T15:20:31.492Z,49.20
2022-10-12T15:22:06.558Z,49.10
2022-10-12T15:23:40.221Z,49.10
2022-10-12T15:25:22.535Z,49.30
2022-10-12T15:26:55.910Z,49.40
2022-10-12T15:28:29.910Z,49.50
2022-10-12T15:30:03.669Z,49.90
2022-10-12T15:31:37.753Z,50.30
2022-10-12T15:33:13.188Z,50.50
2022-10-12T15:34:47.029Z,50.80
2022-10-12T15:36:20.303Z,51.00
2022-10-12T15:37:56.663Z,51.10
2022-10-12T15:39:30.807Z,51.20
2022-10-12T15:41:04.487Z,51.20
2022-10-12T15:42:38.482Z,51.40
2022-10-12T15:44:14.367Z,51.40
2022-10-12T15:45:48.021Z,51.40
2022-10-12T15:47:21.311Z,51.50
2022-10-12T15:48:54.968Z,51.60
2022-10-12T15:50:34.557Z,51.70
2022-10-12T15:52:11.389Z,51.80
2022-10-12T15:53:46.178Z,51.80
2022-10-12T15:55:23.829Z,52.40
2022-10-12T15:56:57.262Z,51.80
2022-10-12T15:58:30.589Z,51.70
2022-10-12T16:00:04.780Z,51.90
2022-10-12T16:01:59.362Z,52.10
2022-10-12T16:03:32.977Z,52.20
2022-10-12T16:05:17.174Z,52.20
2022-10-12T16:06:50.601Z,52.40
2022-10-12T16:08:24.276Z,52.30
2022-10-12T16:09:57.616Z,52.40
2022-10-12T16:11:31.155Z,52.40
2022-10-12T16:13:06.289Z,52.50
2022-10-12T16:14:39.633Z,52.60
2022-10-12T16:16:13.357Z,52.70
2022-10-12T16:17:48.462Z,52.80
2022-10-12T16:19:21.720Z,53.00
2022-10-12T16:20:55.274Z,52.90
2022-10-12T16:22:31.912Z,53.10
2022-10-12T16:24:06.674Z,53.20
2022-10-12T16:25:41.255Z,53.30
2022-10-12T16:27:15.143Z,53.60
2022-10-12T16:28:48.936Z,53.50
2022-10-12T16:30:23.691Z,53.50
2022-10-12T16:31:57.572Z,53.70
2022-10-12T16:33:32.496Z,53.80
2022-10-12T16:35:08.118Z,53.80
2022-10-12T16:36:41.503Z,53.90
2022-10-12T16:38:15.864Z,54.00
2022-10-12T16:39:49.485Z,54.00
2022-10-12T16:41:23.200Z,54.10
2022-10-12T16:42:57.499Z,54.20
2022-10-12T16:44:31.053Z,54.20
2022-10-12T16:46:05.111Z,54.30
2022-10-12T16:47:42.698Z,54.40
2022-10-12T16:49:17.884Z,54.50
2022-10-12T16:50:51.179Z,54.60
2022-10-12T16:52:25.736Z,54.60
2022-10-12T16:53:58.981Z,54.60
2022-10-12T16:55:32.419Z,54.70
2022-10-12T16:57:06.068Z,54.70
2022-10-12T16:58:39.492Z,54.80
2022-10-12T17:00:19.098Z,54.90
2022-10-12T17:01:52.785Z,55.00
2022-10-12T17:03:26.359Z,54.90
2022-10-12T17:05:01.038Z,55.00
2022-10-12T17:06:34.992Z,55.00
2022-10-12T17:08:13.977Z,55.00
2022-10-12T17:09:48.197Z,55.00
2022-10-12T17:11:22.138Z,55.00
2022-10-12T17:12:55.455Z,55.10
2022-10-12T17:14:30.148Z,55.10
2022-10-12T17:16:25.348Z,55.10
2022-10-12T17:17:59.542Z,55.30
2022-10-12T17:19:37.211Z,55.20
2022-10-12T17:21:12.297Z,55.30
2022-10-12T17:22:45.910Z,55.30
2022-10-12T17:24:24.156Z,55.30
2022-10-12T17:26:00.708Z,55.50
2022-10-12T17:27:34.494Z,55.50
2022-10-12T17:29:15.921Z,55.60
2022-10-12T17:30:49.272Z,55.80
2022-10-12T17:32:23.296Z,55.80
2022-10-12T17:33:58.435Z,55.80
2022-10-12T17:35:31.841Z,55.80
2022-10-12T17:37:11.006Z,55.70
2022-10-12T17:38:44.309Z,55.70
2022-10-12T17:40:20.314Z,55.70
2022-10-12T17:41:54.375Z,55.60
2022-10-12T17:43:28.149Z,55.60
2022-10-12T17:45:01.459Z,55.60
2022-10-12T17:46:34.836Z,55.70
2022-10-12T17:48:08.975Z,55.70
2022-10-12T17:49:44.640Z,55.80
2022-10-12T17:51:18.322Z,55.70
2022-10-12T17:52:53.016Z,55.60
2022-10-12T17:54:27.363Z,55.70
2022-10-12T17:56:03.243Z,55.80
2022-10-12T17:57:36.703Z,55.80
2022-10-12T17:59:11.445Z,55.60
2022-10-12T18:00:44.852Z,55.70
2022-10-12T18:02:19.560Z,55.60
2022-10-12T18:03:55.451Z,55.60
2022-10-12T18:05:28.752Z,55.70
2022-10-12T18:07:02.268Z,55.60
2022-10-12T18:08:37.932Z,55.60
2022-10-12T18:10:11.956Z,55.70
2022-10-12T18:11:45.670Z,55.70
2022-10-12T18:13:18.956Z,55.70
2022-10-12T18:14:52.798Z,55.90
2022-10-12T18:16:29.206Z,56.00
2022-10-12T18:18:03.410Z,56.00
2022-10-12T18:19:36.816Z,56.00
2022-10-12T18:21:14.384Z,56.10
2022-10-12T18:22:47.767Z,56.20
2022-10-12T18:24:23.233Z,56.20
2022-10-12T18:25:57.257Z,56.20
2022-10-12T18:27:30.799Z,56.20
2022-10-12T18:29:05.088Z,56.20
2022-10-12T18:30:46.428Z,56.40
2022-10-12T18:32:23.110Z,56.30
2022-10-12T18:33:59.740Z,56.30
2022-10-12T18:35:35.835Z,56.40
2022-10-12T18:37:09.579Z,56.40
2022-10-12T18:38:43.479Z,56.40
2022-10-12T18:40:18.412Z,56.40
2022-10-12T18:41:52.551Z,56.40
2022-10-12T18:43:25.814Z,56.30
2022-10-12T18:44:59.522Z,56.30
2022-10-12T18:46:37.007Z,56.30
2022-10-12T18:48:09.602Z,56.30
2022-10-12T18:49:43.044Z,56.20
2022-10-12T18:51:21.843Z,56.30
2022-10-12T18:52:56.088Z,56.40
2022-10-12T18:54:29.546Z,56.50
2022-10-12T18:56:05.900Z,56.50
2022-10-12T18:57:40.215Z,56.70
2022-10-12T18:59:17.909Z,56.70
2022-10-12T19:00:52.085Z,56.80
2022-10-12T19:02:25.567Z,56.80
2022-10-12T19:04:01.965Z,56.80
2022-10-12T19:05:35.311Z,57.40
2022-10-12T19:07:08.892Z,56.80
2022-10-12T19:08:43.660Z,56.80
2022-10-12T19:10:17.391Z,56.80
2022-10-12T19:11:52.775Z,56.70
2022-10-12T19:13:26.208Z,56.80
2022-10-12T19:14:59.761Z,56.70
2022-10-12T19:16:35.695Z,56.70
2022-10-12T19:18:09.008Z,56.60
2022-10-12T19:19:43.029Z,56.60
2022-10-12T19:21:19.245Z,56.50
2022-10-12T19:22:52.639Z,56.50
2022-10-12T19:24:25.923Z,56.40
2022-10-12T19:26:05.018Z,56.40
2022-10-12T19:27:40.471Z,56.50
2022-10-12T19:29:14.281Z,56.40
2022-10-12T19:30:47.615Z,56.30
2022-10-12T19:32:21.130Z,56.40
2022-10-12T19:33:57.115Z,56.30
2022-10-12T19:35:30.715Z,56.40
2022-10-12T19:37:04.291Z,56.30
2022-10-12T19:38:38.454Z,56.40
2022-10-12T19:40:14.575Z,56.50
2022-10-12T19:41:49.223Z,56.50
2022-10-12T19:43:24.430Z,56.50
2022-10-12T19:45:02.366Z,56.50
2022-10-12T19:46:37.332Z,56.50
2022-10-12T19:48:10.945Z,56.40
2022-10-12T19:49:45.466Z,56.40
2022-10-12T19:51:20.899Z,56.40
2022-10-12T19:52:54.192Z,56.40
2022-10-12T19:54:27.467Z,56.40
2022-10-12T19:56:01.845Z,56.50
2022-10-12T19:57:38.790Z,56.40
2022-10-12T19:59:14.442Z,56.40
2022-10-12T20:00:47.761Z,56.40
2022-10-12T20:02:21.720Z,56.30
2022-10-12T20:03:56.381Z,56.30
2022-10-12T20:05:29.965Z,56.40
2022-10-12T20:07:03.549Z,56.40
2022-10-12T20:08:38.091Z,56.40
2022-10-12T20:10:11.890Z,56.40
2022-10-12T20:11:45.634Z,56.30
2022-10-12T20:13:19.304Z,56.30
2022-10-12T20:14:54.205Z,56.20
2022-10-12T20:16:34.673Z,56.20
2022-10-12T20:18:08.881Z,56.30
2022-10-12T20:19:42.171Z,56.20
2022-10-12T20:21:20.061Z,56.10
2022-10-12T20:22:53.362Z,56.20
2022-10-12T20:24:26.877Z,56.10
2022-10-12T20:26:00.201Z,56.10
2022-10-12T20:27:33.893Z,56.20
2022-10-12T20:29:07.367Z,56.10
2022-10-12T20:30:42.894Z,56.10
2022-10-12T20:32:16.589Z,56.10
2022-10-12T20:33:53.447Z,56.10
2022-10-12T20:35:26.919Z,56.20
2022-10-12T20:37:00.223Z,56.20
2022-10-12T20:38:32.543Z,56.20
2022-10-12T20:40:07.906Z,56.30
2022-10-12T20:41:41.505Z,56.30
2022-10-12T20:43:14.831Z,56.40
2022-10-12T20:44:48.692Z,56.40
2022-10-12T20:46:23.646Z,56.30
2022-10-12T20:47:57.421Z,56.40
2022-10-12T20:49:31.047Z,56.40
2022-10-12T20:51:07.468Z,56.50
2022-10-12T20:52:42.859Z,56.70
2022-10-12T20:54:18.915Z,56.70
2022-10-12T20:55:53.454Z,56.70
2022-10-12T20:57:27.064Z,56.80
2022-10-12T20:59:01.180Z,56.80